Time;durP1;ratioP1;P1;durP2;ratioP2;P2;SDS_P1;SDS_P2;PMS_P1;PMS_P2;Temp;Humidity;BMP_temperature;BMP_pressure;BME280_temperature;BME280_humidity;BME280_pressure;Samples;Min_cycle;Max_cycle;Signal;HPM_P1;HPM_P2
2021/10/11 00:02:22;;;;;;;6.95;3.80;;;;;;;7.29;100.00;98383.84;5034302;28;20378;-74
2021/10/11 00:04:47;;;;;;;8.40;4.60;;;;;;;7.34;100.00;98392.03;5033812;28;20138;-74
2021/10/11 00:07:13;;;;;;;6.50;4.20;;;;;;;7.27;100.00;98388.72;5033927;28;20053;-74
2021/10/11 00:09:38;;;;;;;8.23;4.43;;;;;;;7.31;100.00;98386.28;5033481;28;20037;-74
2021/10/11 00:12:05;;;;;;;10.93;4.00;;;;;;;7.29;100.00;98388.47;5033653;28;20080;-73
2021/10/11 00:14:31;;;;;;;7.05;3.88;;;;;;;7.23;100.00;98387.63;5033490;28;20631;-73
2021/10/11 00:16:56;;;;;;;8.77;4.05;;;;;;;7.25;100.00;98377.28;5033748;28;20064;-74
2021/10/11 00:19:22;;;;;;;7.13;3.50;;;;;;;7.11;100.00;98376.09;5033985;28;20043;-73
2021/10/11 00:21:47;;;;;;;11.88;3.97;;;;;;;7.15;100.00;98377.22;5033376;28;20049;-73
2021/10/11 00:24:13;;;;;;;10.65;3.72;;;;;;;7.21;100.00;98369.88;5033621;28;20025;-73
2021/10/11 00:26:38;;;;;;;5.82;3.30;;;;;;;7.25;100.00;98360.94;5033370;28;20029;-73
2021/10/11 00:29:04;;;;;;;9.23;4.10;;;;;;;7.16;100.00;98351.66;5033359;28;20143;-73
2021/10/11 00:31:30;;;;;;;8.20;3.65;;;;;;;7.03;100.00;98349.41;5031747;28;20026;-72
2021/10/11 00:33:56;;;;;;;8.45;3.80;;;;;;;7.09;100.00;98352.97;5033127;28;20029;-73
2021/10/11 00:36:22;;;;;;;5.85;3.70;;;;;;;6.86;100.00;98346.84;5033253;28;20032;-73
2021/10/11 00:38:48;;;;;;;6.10;3.53;;;;;;;6.93;100.00;98361.03;5033101;28;20557;-73
2021/10/11 00:41:13;;;;;;;7.75;3.90;;;;;;;6.84;100.00;98342.75;5033035;28;20026;-74
2021/10/11 00:43:39;;;;;;;6.05;3.85;;;;;;;7.02;100.00;98350.47;5033050;28;20022;-73
2021/10/11 00:46:06;;;;;;;5.78;3.65;;;;;;;7.06;100.00;98343.44;5032969;28;20029;-74
2021/10/11 00:48:31;;;;;;;8.38;4.30;;;;;;;7.09;100.00;98347.53;5033455;28;20022;-73
2021/10/11 00:50:57;;;;;;;5.50;3.35;;;;;;;7.20;100.00;98341.06;5032939;28;20029;-73
2021/10/11 00:53:23;;;;;;;5.35;3.55;;;;;;;7.19;100.00;98344.88;5032724;28;20036;-72
2021/10/11 00:55:49;;;;;;;6.10;3.50;;;;;;;7.12;100.00;98345.09;5032343;28;20067;-73
2021/10/11 00:58:15;;;;;;;7.57;3.78;;;;;;;7.09;100.00;98348.34;5032796;28;20075;-71
2021/10/11 01:00:40;;;;;;;7.45;4.03;;;;;;;7.08;100.00;98338.53;5032885;28;20018;-73
2021/10/11 01:03:05;;;;;;;5.90;3.72;;;;;;;7.17;100.00;98336.97;5032713;28;20029;-73
2021/10/11 01:05:31;;;;;;;7.60;3.97;;;;;;;7.20;100.00;98339.19;5032678;28;20028;-73
2021/10/11 01:07:56;;;;;;;9.05;4.10;;;;;;;7.21;100.00;98332.63;5033286;28;20497;-74
2021/10/11 01:10:22;;;;;;;6.40;3.83;;;;;;;7.16;100.00;98332.63;5032955;28;20029;-73
2021/10/11 01:12:47;;;;;;;7.43;3.92;;;;;;;7.24;100.00;98345.72;5032491;28;20025;-74
2021/10/11 01:15:12;;;;;;;6.47;4.05;;;;;;;7.21;100.00;98337.25;5032392;28;20060;-74
2021/10/11 01:17:38;;;;;;;7.97;4.22;;;;;;;7.22;100.00;98334.28;5032646;28;20512;-73
2021/10/11 01:20:04;;;;;;;5.80;4.03;;;;;;;7.25;100.00;98328.31;5032592;28;20033;-73
2021/10/11 01:22:38;;;;;;;7.07;3.67;;;;;;;7.25;100.00;98328.31;5030724;28;20140;-73
2021/10/11 01:25:07;;;;;;;9.95;4.10;;;;;;;7.29;100.00;98328.59;5030821;28;20064;-73
2021/10/11 01:27:33;;;;;;;7.57;3.90;;;;;;;7.34;100.00;98324.00;5032234;28;20033;-73
2021/10/11 01:29:58;;;;;;;5.95;4.05;;;;;;;7.32;100.00;98318.00;5032148;28;20029;-73
2021/10/11 01:32:24;;;;;;;6.57;3.90;;;;;;;7.32;100.00;98311.75;5032319;28;20489;-73
2021/10/11 01:34:50;;;;;;;6.28;4.05;;;;;;;7.41;100.00;98316.41;5032452;28;20048;-73
2021/10/11 01:37:16;;;;;;;7.18;3.90;;;;;;;7.42;100.00;98323.47;5032017;28;20103;-73
2021/10/11 01:39:41;;;;;;;9.02;4.15;;;;;;;7.48;100.00;98311.56;5031931;28;20029;-72
2021/10/11 01:42:07;;;;;;;7.30;4.03;;;;;;;7.49;100.00;98307.72;5032190;28;20117;-73
2021/10/11 01:44:33;;;;;;;5.82;3.78;;;;;;;7.50;100.00;98314.00;5033187;28;20022;-73
2021/10/11 01:46:59;;;;;;;7.63;4.30;;;;;;;7.48;100.00;98308.84;5031847;28;20025;-74
2021/10/11 01:49:24;;;;;;;6.63;3.97;;;;;;;7.45;100.00;98306.66;5033459;28;20063;-72
2021/10/11 01:51:49;;;;;;;5.82;3.85;;;;;;;7.54;100.00;98299.59;5031711;28;20026;-75
2021/10/11 01:54:15;;;;;;;6.15;3.65;;;;;;;7.55;100.00;98303.94;5031696;28;20029;-72
2021/10/11 01:56:40;;;;;;;7.38;4.43;;;;;;;7.52;100.00;98296.31;5031653;28;20024;-72
2021/10/11 01:59:06;;;;;;;5.85;3.65;;;;;;;7.51;100.00;98285.69;5031805;28;20038;-73
2021/10/11 02:01:31;;;;;;;6.57;3.83;;;;;;;7.37;100.00;98290.81;5031583;28;20112;-73
2021/10/11 02:03:56;;;;;;;6.68;3.78;;;;;;;7.47;100.00;98285.41;5030045;28;20390;-74
2021/10/11 02:06:22;;;;;;;9.50;3.65;;;;;;;7.40;100.00;98287.56;5030712;28;20053;-74
2021/10/11 02:08:48;;;;;;;6.20;4.03;;;;;;;7.32;100.00;98285.34;5030834;28;20061;-74
2021/10/11 02:11:13;;;;;;;5.93;3.92;;;;;;;7.42;100.00;98288.09;5031282;28;20537;-73
2021/10/11 02:13:38;;;;;;;6.95;4.22;;;;;;;7.29;100.00;98285.06;5031316;28;20124;-74
2021/10/11 02:16:04;;;;;;;6.55;4.00;;;;;;;7.32;100.00;98284.53;5031584;28;20025;-72
2021/10/11 02:18:29;;;;;;;6.25;3.80;;;;;;;7.39;100.00;98277.75;5030456;28;20391;-74
2021/10/11 02:20:55;;;;;;;5.78;3.90;;;;;;;7.40;100.00;98282.13;5030804;28;20091;-73
2021/10/11 02:23:20;;;;;;;6.32;3.72;;;;;;;7.42;100.00;98277.22;5031082;28;20025;-74
2021/10/11 02:25:46;;;;;;;6.70;4.32;;;;;;;7.37;100.00;98273.66;5031147;28;20026;-73
2021/10/11 02:28:11;;;;;;;6.28;4.10;;;;;;;7.24;100.00;98266.81;5031127;28;20026;-74
2021/10/11 02:30:36;;;;;;;8.38;3.90;;;;;;;7.21;100.00;98267.34;5031048;28;20030;-74
2021/10/11 02:33:02;;;;;;;5.75;3.67;;;;;;;7.26;100.00;98274.72;5031085;28;20018;-74
2021/10/11 02:35:27;;;;;;;7.47;4.15;;;;;;;7.21;100.00;98266.53;5030992;28;20031;-75
2021/10/11 02:37:53;;;;;;;7.97;4.15;;;;;;;7.24;100.00;98266.81;5031055;28;20032;-74
2021/10/11 02:40:18;;;;;;;9.00;4.05;;;;;;;7.24;100.00;98268.72;5030843;28;20398;-74
2021/10/11 02:42:43;;;;;;;7.28;4.05;;;;;;;7.15;100.00;98262.97;5030891;28;20482;-73
2021/10/11 02:45:09;;;;;;;6.05;4.10;;;;;;;7.19;100.00;98266.81;5030978;28;20089;-73
2021/10/11 02:47:35;;;;;;;9.38;4.13;;;;;;;7.19;100.00;98257.81;5030962;28;20021;-74
2021/10/11 02:50:00;;;;;;;7.60;4.20;;;;;;;7.24;100.00;98261.38;5030896;28;20071;-73
2021/10/11 02:52:28;;;;;;;5.72;3.75;;;;;;;7.26;100.00;98255.69;5030776;28;20057;-74
2021/10/11 02:54:54;;;;;;;5.68;3.38;;;;;;;7.21;100.00;98252.91;5030603;28;20144;-73
2021/10/11 02:57:19;;;;;;;7.03;3.90;;;;;;;7.25;100.00;98249.41;5031275;28;20034;-75
2021/10/11 02:59:45;;;;;;;7.28;4.15;;;;;;;7.05;100.00;98249.31;5031047;28;20040;-73
2021/10/11 03:02:10;;;;;;;7.43;3.92;;;;;;;7.13;100.00;98256.97;5030460;28;20452;-73
2021/10/11 03:04:36;;;;;;;8.48;4.10;;;;;;;7.03;100.00;98246.06;5030532;28;20025;-74
2021/10/11 03:07:01;;;;;;;15.57;5.30;;;;;;;7.10;100.00;98246.63;5030589;28;20036;-74
2021/10/11 03:09:26;;;;;;;6.60;4.03;;;;;;;7.18;100.00;98245.28;5030785;28;20505;-73
2021/10/11 03:11:52;;;;;;;6.80;4.03;;;;;;;7.25;100.00;98251.31;5030398;28;20037;-74
2021/10/11 03:14:17;;;;;;;6.82;4.05;;;;;;;7.29;100.00;98246.97;5030375;28;20033;-73
2021/10/11 03:16:43;;;;;;;7.55;3.83;;;;;;;7.21;100.00;98240.13;5030346;28;20120;-74
2021/10/11 03:19:08;;;;;;;7.28;4.57;;;;;;;7.27;100.00;98244.50;5030598;28;20029;-74
2021/10/11 03:21:33;;;;;;;7.78;4.53;;;;;;;7.37;100.00;98247.28;5030229;28;20092;-73
2021/10/11 03:23:59;;;;;;;8.75;4.50;;;;;;;7.26;100.00;98245.63;5030265;28;20474;-74
2021/10/11 03:26:24;;;;;;;8.35;4.25;;;;;;;7.25;100.00;98229.53;5030276;28;20025;-74
2021/10/11 03:28:49;;;;;;;9.85;4.43;;;;;;;7.24;100.00;98228.72;5030203;28;20026;-73
2021/10/11 03:31:15;;;;;;;8.00;4.47;;;;;;;7.34;100.00;98230.66;5030329;28;20025;-73
2021/10/11 03:33:40;;;;;;;5.97;3.80;;;;;;;7.31;100.00;98223.03;5028798;28;20059;-74
2021/10/11 03:36:07;;;;;;;6.95;4.43;;;;;;;7.43;100.00;98237.22;5030373;28;20099;-74
2021/10/11 03:38:33;;;;;;;6.60;4.25;;;;;;;7.45;100.00;98235.06;5030262;28;20109;-74
2021/10/11 03:40:58;;;;;;;9.88;4.32;;;;;;;7.37;100.00;98228.22;5030233;28;20112;-74
2021/10/11 03:43:24;;;;;;;6.10;4.00;;;;;;;7.33;100.00;98231.78;5030080;28;20029;-74
2021/10/11 03:45:49;;;;;;;9.70;4.47;;;;;;;7.34;100.00;98222.50;5030141;28;20029;-74
2021/10/11 03:48:15;;;;;;;7.82;4.18;;;;;;;7.42;100.00;98228.22;5030510;28;20642;-74
2021/10/11 03:50:41;;;;;;;6.90;4.10;;;;;;;7.40;100.00;98222.25;5023327;28;20037;-73
2021/10/11 03:53:06;;;;;;;6.57;4.10;;;;;;;7.41;100.00;98239.41;5015164;28;20040;-74
2021/10/11 03:55:32;;;;;;;9.25;4.63;;;;;;;7.36;100.00;98221.13;5011458;28;20046;-75
2021/10/11 03:57:57;;;;;;;8.07;5.07;;;;;;;7.47;100.00;98222.81;5029719;28;20390;-76
2021/10/11 04:00:23;;;;;;;8.40;4.45;;;;;;;7.49;100.00;98226.06;5029790;28;20033;-74
2021/10/11 04:02:48;;;;;;;9.13;4.80;;;;;;;7.49;100.00;98222.53;5029719;28;20022;-74
2021/10/11 04:05:14;;;;;;;8.52;4.93;;;;;;;7.43;100.00;98221.72;5029443;28;20029;-75
2021/10/11 04:07:42;;;;;;;7.95;5.13;;;;;;;7.37;100.00;98211.91;5027344;28;20117;-73
2021/10/11 04:10:09;;;;;;;8.00;5.18;;;;;;;7.45;100.00;98211.41;5009983;28;20026;-73
2021/10/11 04:12:35;;;;;;;8.07;4.97;;;;;;;7.39;100.00;98212.44;5009933;28;20105;-74
2021/10/11 04:15:03;;;;;;;8.57;5.07;;;;;;;7.47;100.00;98217.38;5010106;28;20034;-74
2021/10/11 04:17:28;;;;;;;8.75;5.70;;;;;;;7.49;100.00;98236.13;5009660;28;20025;-74
2021/10/11 04:19:54;;;;;;;9.23;5.20;;;;;;;7.42;100.00;98232.88;5010395;28;20698;-73
2021/10/11 04:22:19;;;;;;;11.48;5.40;;;;;;;7.35;100.00;98224.97;5009707;28;20115;-74
2021/10/11 04:24:45;;;;;;;13.40;5.82;;;;;;;7.40;100.00;98222.25;5010122;28;20025;-74
2021/10/11 04:27:10;;;;;;;10.98;5.50;;;;;;;7.43;100.00;98238.03;5011201;28;20083;-76
2021/10/11 04:29:36;;;;;;;9.85;4.97;;;;;;;7.39;100.00;98234.22;5011222;28;20136;-74
2021/10/11 04:32:01;;;;;;;9.50;5.20;;;;;;;7.47;100.00;98236.44;5013282;28;20119;-74
2021/10/11 04:34:27;;;;;;;8.95;5.38;;;;;;;7.54;100.00;98238.91;5013278;28;20069;-75
2021/10/11 04:36:52;;;;;;;8.73;4.82;;;;;;;7.50;100.00;98243.22;5013309;28;20041;-75
2021/10/11 04:39:17;;;;;;;7.80;4.97;;;;;;;7.49;100.00;98238.88;5013116;28;20113;-74
2021/10/11 04:41:43;;;;;;;12.88;5.78;;;;;;;7.50;100.00;98235.88;5013365;28;20467;-74
2021/10/11 04:44:08;;;;;;;9.55;6.30;;;;;;;7.52;100.00;98236.44;5013494;28;20068;-75
2021/10/11 04:46:34;;;;;;;10.32;6.38;;;;;;;7.55;100.00;98238.59;5033495;28;20113;-76
2021/10/11 04:48:59;;;;;;;10.32;5.95;;;;;;;7.47;100.00;98228.25;5033136;28;20087;-75
2021/10/11 04:51:24;;;;;;;9.68;5.75;;;;;;;7.57;100.00;98242.97;5032323;28;20046;-75
2021/10/11 04:53:50;;;;;;;11.07;6.78;;;;;;;7.52;100.00;98247.31;5032651;28;20037;-75
2021/10/11 04:56:15;;;;;;;8.38;5.15;;;;;;;7.49;100.00;98255.19;5031509;28;20120;-73
2021/10/11 04:58:41;;;;;;;10.13;5.90;;;;;;;7.48;100.00;98251.69;5032712;28;20463;-75
2021/10/11 05:01:06;;;;;;;11.30;5.18;;;;;;;7.41;100.00;98251.09;5032606;28;20021;-73
2021/10/11 05:03:31;;;;;;;10.35;5.35;;;;;;;7.41;100.00;98239.41;5032480;28;20033;-74
2021/10/11 05:05:57;;;;;;;10.93;5.55;;;;;;;7.38;100.00;98246.19;5032545;28;20463;-74
2021/10/11 05:08:22;;;;;;;11.15;6.05;;;;;;;7.39;100.00;98255.97;5033974;28;20026;-74
2021/10/11 05:10:48;;;;;;;13.15;6.10;;;;;;;7.37;100.00;98252.72;5032540;28;20060;-75
2021/10/11 05:13:13;;;;;;;9.85;5.43;;;;;;;7.55;100.00;98259.56;5032569;28;20030;-74
2021/10/11 05:15:38;;;;;;;11.77;5.88;;;;;;;7.61;100.00;98258.53;5032115;28;20108;-75
2021/10/11 05:18:04;;;;;;;13.35;6.57;;;;;;;7.66;100.00;98268.59;5032239;28;20033;-73
2021/10/11 05:20:33;;;;;;;10.75;6.57;;;;;;;7.65;100.00;98264.22;5032187;28;20061;-75
2021/10/11 05:23:00;;;;;;;13.85;6.30;;;;;;;7.72;100.00;98267.50;5032135;28;20537;-74
2021/10/11 05:25:27;;;;;;;10.93;6.13;;;;;;;7.78;100.00;98269.16;5032213;28;20486;-74
2021/10/11 05:27:52;;;;;;;10.68;5.55;;;;;;;7.87;100.00;98276.53;5034343;28;20433;-74
2021/10/11 05:30:18;;;;;;;9.60;5.80;;;;;;;7.85;100.00;98264.25;5032638;28;20034;-77
2021/10/11 05:32:46;;;;;;;12.95;6.10;;;;;;;7.88;100.00;98263.72;5032983;28;20104;-81
2021/10/11 05:35:11;;;;;;;18.98;7.20;;;;;;;7.88;100.00;98272.72;5032698;28;20160;-73
2021/10/11 05:37:37;;;;;;;11.25;5.93;;;;;;;7.99;100.00;98278.97;5031904;28;20100;-75
2021/10/11 05:40:07;;;;;;;13.60;5.80;;;;;;;7.96;100.00;98269.44;5031488;28;20548;-74
2021/10/11 05:42:33;;;;;;;17.33;6.78;;;;;;;8.02;100.00;98271.09;5042045;28;20064;-85
2021/10/11 05:44:58;;;;;;;10.88;6.50;;;;;;;8.02;100.00;98278.44;5027245;28;20018;-79
2021/10/11 05:47:24;;;;;;;12.57;6.53;;;;;;;7.93;100.00;98258.28;5027079;28;20120;-79
2021/10/11 05:49:50;;;;;;;10.30;6.20;;;;;;;8.07;100.00;98284.72;5029417;28;20464;-78
2021/10/11 05:52:15;;;;;;;11.38;6.90;;;;;;;8.13;100.00;98285.53;5020698;28;20065;-78
2021/10/11 05:54:41;;;;;;;11.07;6.65;;;;;;;8.03;100.00;98270.00;5033495;28;20033;-78
2021/10/11 05:57:06;;;;;;;12.85;6.85;;;;;;;8.27;100.00;98285.84;5036889;28;20017;-75
2021/10/11 05:59:32;;;;;;;12.07;6.97;;;;;;;8.31;100.00;98287.75;5036282;28;20033;-77
2021/10/11 06:01:57;;;;;;;10.75;6.38;;;;;;;8.12;100.00;98291.25;5031352;28;20119;-75
2021/10/11 06:04:22;;;;;;;9.77;6.50;;;;;;;8.13;100.00;98296.44;5031383;28;20053;-77
2021/10/11 06:06:48;;;;;;;11.25;6.00;;;;;;;8.09;100.00;98287.16;5035826;28;20033;-75
2021/10/11 06:09:15;;;;;;;14.57;7.07;;;;;;;8.07;100.00;98283.91;5040589;28;20117;-78
2021/10/11 06:11:41;;;;;;;10.98;6.22;;;;;;;8.18;100.00;98299.16;5037706;28;20031;-78
2021/10/11 06:14:07;;;;;;;12.18;6.15;;;;;;;8.19;100.00;98284.47;5036034;28;20030;-78
2021/10/11 06:16:33;;;;;;;15.48;6.80;;;;;;;8.22;100.00;98294.81;5031306;28;20823;-76
2021/10/11 06:18:58;;;;;;;11.88;7.18;;;;;;;8.26;100.00;98306.81;5031902;28;20028;-77
2021/10/11 06:21:23;;;;;;;12.52;6.15;;;;;;;8.40;100.00;98297.03;5032454;28;20049;-77
2021/10/11 06:23:51;;;;;;;11.45;6.40;;;;;;;8.48;100.00;98299.22;5030430;28;20041;-76
2021/10/11 06:26:16;;;;;;;11.65;6.10;;;;;;;8.56;100.00;98311.47;5031342;28;20032;-78
2021/10/11 06:28:42;;;;;;;14.32;6.68;;;;;;;8.64;100.00;98312.84;5031176;28;21441;-78
2021/10/11 06:31:07;;;;;;;11.23;6.15;;;;;;;8.66;100.00;98325.09;5029620;28;20120;-78
2021/10/11 06:33:33;;;;;;;9.52;5.80;;;;;;;8.52;100.00;98327.56;5031727;28;20089;-77
2021/10/11 06:35:58;;;;;;;11.43;6.55;;;;;;;8.54;100.00;98327.28;5031291;28;20136;-74
2021/10/11 06:38:24;;;;;;;10.60;6.15;;;;;;;8.59;100.00;98333.56;5030906;28;20498;-76
2021/10/11 06:40:51;;;;;;;11.93;5.72;;;;;;;8.67;100.00;98323.19;5031707;28;20032;-76
2021/10/11 06:43:17;;;;;;;12.57;6.43;;;;;;;8.69;100.00;98326.47;5031605;28;20394;-76
2021/10/11 06:45:43;;;;;;;12.18;5.93;;;;;;;8.73;100.00;98319.38;5031051;28;20036;-78
2021/10/11 06:48:08;;;;;;;10.95;6.60;;;;;;;8.76;100.00;98322.38;5030349;28;20045;-76
2021/10/11 06:50:34;;;;;;;11.57;5.65;;;;;;;8.84;100.00;98335.44;5030216;28;20099;-75
2021/10/11 06:53:00;;;;;;;14.10;7.10;;;;;;;8.90;100.00;98328.06;5029910;28;20029;-76
2021/10/11 06:55:25;;;;;;;9.93;6.30;;;;;;;8.91;100.00;98322.34;5031036;28;20033;-77
2021/10/11 06:57:51;;;;;;;13.57;6.63;;;;;;;9.12;100.00;98347.66;5031108;28;20067;-76
2021/10/11 07:00:16;;;;;;;14.07;6.72;;;;;;;9.09;100.00;98343.59;5030961;28;20024;-79
2021/10/11 07:02:42;;;;;;;13.63;7.10;;;;;;;9.15;100.00;98338.94;5030835;28;20021;-75
2021/10/11 07:05:11;;;;;;;14.45;6.35;;;;;;;9.32;100.00;98344.09;5032730;28;20032;-76
2021/10/11 07:07:39;;;;;;;16.70;7.22;;;;;;;9.18;100.00;98356.69;5034339;28;20040;-76
2021/10/11 07:10:05;;;;;;;10.80;6.18;;;;;;;9.21;100.00;98346.00;5033051;28;20039;-76
2021/10/11 07:12:31;;;;;;;13.05;6.00;;;;;;;9.40;100.00;98366.16;5030323;28;20025;-78
2021/10/11 07:14:57;;;;;;;17.15;6.95;;;;;;;9.45;100.00;98348.97;5030653;28;20025;-78
2021/10/11 07:17:22;;;;;;;15.73;6.32;;;;;;;9.52;100.00;98354.94;5030880;28;20023;-78
2021/10/11 07:19:48;;;;;;;15.90;8.30;;;;;;;9.59;100.00;98358.19;5030378;28;20536;-76
2021/10/11 07:22:17;;;;;;;13.77;7.00;;;;;;;9.81;100.00;98366.00;5030242;28;20406;-78
2021/10/11 07:24:44;;;;;;;15.00;6.80;;;;;;;9.79;100.00;98370.94;5030495;28;20105;-77
2021/10/11 07:27:10;;;;;;;13.38;6.85;;;;;;;9.89;100.00;98368.16;5030388;28;20413;-77
2021/10/11 07:29:36;;;;;;;18.02;7.22;;;;;;;9.93;99.92;98375.50;5030474;28;20590;-76
2021/10/11 07:32:03;;;;;;;13.88;7.15;;;;;;;10.03;100.00;98377.38;5030497;28;20048;-77
2021/10/11 07:34:28;;;;;;;15.18;7.03;;;;;;;10.01;99.05;98374.13;5030169;28;20068;-78
2021/10/11 07:36:54;;;;;;;14.07;6.57;;;;;;;10.17;98.27;98383.91;5030051;28;20053;-78
2021/10/11 07:39:19;;;;;;;11.80;6.45;;;;;;;10.28;97.72;98373.72;5030277;28;20033;-78
2021/10/11 07:41:44;;;;;;;14.27;6.80;;;;;;;10.35;96.49;98371.50;5029085;28;20021;-79
2021/10/11 07:44:10;;;;;;;9.60;5.93;;;;;;;10.57;96.21;98391.03;5030411;28;20124;-78
2021/10/11 07:46:37;;;;;;;18.65;6.88;;;;;;;10.57;95.73;98391.03;5030875;28;20032;-77
2021/10/11 07:49:03;;;;;;;10.50;5.95;;;;;;;10.71;93.94;98392.03;5030311;28;20032;-76
2021/10/11 07:51:28;;;;;;;16.15;6.65;;;;;;;10.74;93.71;98395.00;5030516;28;20029;-78
2021/10/11 07:53:53;;;;;;;11.68;6.15;;;;;;;10.58;92.64;98379.00;5030560;28;20032;-77
2021/10/11 07:56:19;;;;;;;14.98;6.50;;;;;;;10.49;94.12;98394.38;5030514;28;20032;-78
2021/10/11 07:58:44;;;;;;;12.30;6.22;;;;;;;10.61;94.14;98397.56;5030025;28;20060;-78
2021/10/11 08:01:10;;;;;;;9.73;5.65;;;;;;;10.50;94.34;98396.00;5030194;28;20026;-77
2021/10/11 08:03:35;;;;;;;12.82;6.20;;;;;;;10.24;95.29;98391.81;5030034;28;20109;-79
2021/10/11 08:06:04;;;;;;;11.55;6.00;;;;;;;10.34;94.43;98392.53;5032871;28;20037;-77
2021/10/11 08:08:31;;;;;;;13.40;6.50;;;;;;;10.54;94.14;98400.63;5033153;28;20022;-78
2021/10/11 08:10:57;;;;;;;18.90;7.35;;;;;;;10.75;93.61;98393.91;5033784;28;20033;-78
2021/10/11 08:13:23;;;;;;;11.13;6.38;;;;;;;10.80;92.82;98394.97;5033894;28;20446;-77
2021/10/11 08:15:49;;;;;;;14.07;6.45;;;;;;;10.87;93.61;98414.63;5034028;28;20017;-79
2021/10/11 08:18:15;;;;;;;12.55;5.97;;;;;;;10.93;93.11;98392.38;5034170;28;20103;-78
2021/10/11 08:20:41;;;;;;;10.07;6.15;;;;;;;10.97;92.71;98411.78;5032540;28;20379;-78
2021/10/11 08:23:09;;;;;;;12.55;7.43;;;;;;;11.06;91.86;98410.06;5034815;28;20021;-79
2021/10/11 08:25:35;;;;;;;13.70;6.50;;;;;;;11.12;89.76;98414.41;5033809;28;20475;-79
2021/10/11 08:28:00;;;;;;;12.07;6.60;;;;;;;11.05;90.11;98414.75;5033677;28;20056;-77
2021/10/11 08:30:25;;;;;;;10.70;5.72;;;;;;;11.16;89.11;98415.44;5032255;28;20033;-77
2021/10/11 08:32:51;;;;;;;15.13;6.43;;;;;;;11.30;88.72;98405.47;5033602;28;20025;-79
2021/10/11 08:35:16;;;;;;;14.70;6.72;;;;;;;11.39;88.38;98403.72;5033644;28;20164;-77
2021/10/11 08:37:42;;;;;;;13.60;6.88;;;;;;;11.41;88.14;98395.22;5034013;28;20395;-78
2021/10/11 08:40:08;;;;;;;14.13;6.55;;;;;;;11.68;87.07;98411.94;5032128;28;20075;-79
2021/10/11 08:42:36;;;;;;;12.30;5.80;;;;;;;11.73;87.26;98409.97;5033417;28;20040;-79
2021/10/11 08:45:02;;;;;;;17.00;6.85;;;;;;;11.95;85.89;98406.69;5032269;28;20413;-79
2021/10/11 08:47:27;;;;;;;13.32;5.90;;;;;;;11.94;84.38;98376.81;5034120;28;20034;-78
2021/10/11 08:49:53;;;;;;;21.20;6.15;;;;;;;12.19;83.46;98414.88;5033435;28;20045;-77
2021/10/11 08:52:21;;;;;;;15.75;6.00;;;;;;;12.38;82.95;98393.78;5033421;28;20029;-78
2021/10/11 08:54:48;;;;;;;12.93;5.82;;;;;;;12.46;82.62;98409.59;5033317;28;20466;-78
2021/10/11 08:57:25;;;;;;;16.67;6.38;;;;;;;12.79;79.66;98392.06;5033595;28;20040;-78
2021/10/11 08:59:51;;;;;;;12.55;5.82;;;;;;;12.85;78.70;98390.03;5034029;28;20018;-79
2021/10/11 09:02:20;;;;;;;13.27;6.03;;;;;;;13.16;78.61;98391.19;5033103;28;20028;-77
2021/10/11 09:04:52;;;;;;;16.63;6.78;;;;;;;13.41;76.32;98395.41;5033306;28;20041;-78
2021/10/11 09:07:22;;;;;;;9.82;5.82;;;;;;;14.44;71.45;98402.13;5031811;28;20029;-78
2021/10/11 09:09:49;;;;;;;12.43;6.30;;;;;;;14.86;69.81;98404.47;5033026;28;20483;-78
2021/10/11 09:12:35;;;;;;;10.23;6.07;;;;;;;15.16;68.13;98402.91;5033288;28;20037;-77
2021/10/11 09:15:14;;;;;;;11.48;5.72;;;;;;;15.10;68.07;98386.81;5032995;28;20049;-78
2021/10/11 09:17:43;;;;;;;14.55;7.03;;;;;;;15.16;68.19;98397.38;5033592;28;20041;-78
2021/10/11 09:20:14;;;;;;;11.45;6.07;;;;;;;14.34;68.31;98383.13;5033351;28;20025;-78
2021/10/11 09:22:42;;;;;;;11.48;5.18;;;;;;;14.19;69.64;98388.94;5033102;28;20050;-77
2021/10/11 09:25:09;;;;;;;13.30;6.72;;;;;;;13.61;73.08;98391.47;5033093;28;20049;-77
2021/10/11 09:28:02;;;;;;;12.02;5.30;;;;;;;13.57;72.67;98388.50;5033456;28;20053;-77
2021/10/11 09:30:33;;;;;;;12.43;5.55;;;;;;;13.27;72.17;98378.09;5030927;28;20478;-78
2021/10/11 09:33:18;;;;;;;9.98;5.00;;;;;;;13.60;72.83;98385.16;5032822;28;20072;-77
2021/10/11 09:35:45;;;;;;;16.48;7.00;;;;;;;13.87;70.82;98374.19;5033281;28;20447;-78
2021/10/11 09:38:28;;;;;;;11.43;4.93;;;;;;;13.64;71.65;98377.13;5033368;28;20540;-75
2021/10/11 09:40:55;;;;;;;11.70;4.05;;;;;;;14.50;68.17;98380.84;5037166;28;20028;-76
2021/10/11 09:43:24;;;;;;;7.95;4.00;;;;;;;14.96;65.93;98384.94;5039622;28;20037;-77
2021/10/11 09:45:51;;;;;;;7.40;4.38;;;;;;;15.07;64.63;98371.72;5038253;28;20048;-78
2021/10/11 09:48:17;;;;;;;8.70;4.30;;;;;;;14.34;67.38;98370.19;5033094;28;20034;-78
2021/10/11 09:50:43;;;;;;;15.05;5.32;;;;;;;15.49;65.04;98364.88;5032556;28;20025;-78
2021/10/11 09:53:12;;;;;;;12.23;4.50;;;;;;;15.31;62.57;98374.16;5032278;28;20034;-78
2021/10/11 09:55:40;;;;;;;12.65;5.30;;;;;;;15.07;65.01;98379.19;5032239;28;20037;-79
2021/10/11 09:58:13;;;;;;;9.45;3.92;;;;;;;14.72;64.33;98373.41;5033585;28;20475;-77
2021/10/11 10:00:41;;;;;;;13.50;5.32;;;;;;;13.97;67.61;98359.38;5031981;28;20044;-77
2021/10/11 10:03:12;;;;;;;7.85;4.20;;;;;;;14.54;66.32;98368.88;5032729;28;20030;-76
2021/10/11 10:05:41;;;;;;;9.63;4.15;;;;;;;15.17;64.32;98370.63;5033666;28;20032;-79
2021/10/11 10:08:14;;;;;;;9.50;4.28;;;;;;;15.34;63.53;98374.34;5034651;28;20022;-76
2021/10/11 10:10:41;;;;;;;8.88;3.92;;;;;;;15.34;63.73;98376.28;5032346;28;20024;-77
2021/10/11 10:13:18;;;;;;;7.95;3.00;;;;;;;15.21;62.06;98388.19;5033832;28;20039;-76
2021/10/11 10:15:44;;;;;;;8.50;3.25;;;;;;;14.34;63.92;98347.34;5031963;28;20029;-77
2021/10/11 10:18:12;;;;;;;14.05;5.40;;;;;;;14.76;64.17;98370.84;5031819;28;20033;-78
2021/10/11 10:20:51;;;;;;;9.10;3.55;;;;;;;14.84;62.58;98389.38;5031980;28;20037;-78
2021/10/11 10:23:24;;;;;;;9.60;3.92;;;;;;;14.16;64.89;98373.03;5032760;28;20036;-78
2021/10/11 10:25:50;;;;;;;11.73;6.50;;;;;;;14.40;68.46;98363.44;5031686;28;20044;-78
2021/10/11 10:28:16;;;;;;;13.57;7.25;;;;;;;14.18;71.02;98355.09;5030893;28;20017;-77
2021/10/11 10:30:42;;;;;;;16.38;6.30;;;;;;;13.92;72.82;98357.56;5031510;28;20056;-77
2021/10/11 10:33:11;;;;;;;12.05;6.80;;;;;;;13.58;72.53;98375.59;5030090;28;20115;-78
2021/10/11 10:35:45;;;;;;;11.18;5.90;;;;;;;13.97;72.03;98351.13;5031250;28;20030;-80
2021/10/11 10:38:18;;;;;;;12.48;5.10;;;;;;;14.55;69.98;98367.75;5031195;28;20386;-77
2021/10/11 10:40:44;;;;;;;12.88;5.97;;;;;;;14.78;69.52;98355.66;5031234;28;20025;-78
2021/10/11 10:43:16;;;;;;;13.57;6.47;;;;;;;14.82;69.72;98370.41;5029838;28;20176;-77
2021/10/11 10:45:42;;;;;;;11.45;5.13;;;;;;;15.02;67.61;98375.44;5031272;28;20025;-78
2021/10/11 10:48:25;;;;;;;11.60;4.70;;;;;;;14.65;65.23;98367.53;5031682;28;20661;-78
2021/10/11 10:50:55;;;;;;;7.35;3.20;;;;;;;13.91;66.82;98355.94;5030796;28;20394;-77
2021/10/11 10:53:22;;;;;;;13.10;3.90;;;;;;;13.97;67.05;98355.84;5030857;28;20048;-76
2021/10/11 10:55:49;;;;;;;7.88;3.85;;;;;;;14.07;67.81;98344.59;5030958;28;20017;-78
2021/10/11 10:58:16;;;;;;;6.93;3.00;;;;;;;13.88;67.38;98356.53;5029964;28;20101;-79
2021/10/11 11:00:43;;;;;;;4.95;2.60;;;;;;;13.87;66.92;98354.13;5030876;28;20083;-78
2021/10/11 11:03:14;;;;;;;11.63;4.93;;;;;;;13.37;72.29;98348.47;5030856;28;20030;-79
2021/10/11 11:05:42;;;;;;;13.70;5.65;;;;;;;13.45;75.20;98346.97;5030872;28;20025;-78
2021/10/11 11:08:08;;;;;;;11.35;5.70;;;;;;;12.95;75.80;98329.47;5030697;28;20029;-78
2021/10/11 11:10:36;;;;;;;10.35;4.85;;;;;;;13.18;75.11;98320.28;5029544;28;20034;-81
2021/10/11 11:13:14;;;;;;;16.65;7.10;;;;;;;13.20;75.93;98329.03;5031075;28;20040;-77
2021/10/11 11:15:46;;;;;;;11.68;6.20;;;;;;;13.32;76.00;98334.84;5030923;28;20116;-78
2021/10/11 11:18:15;;;;;;;13.50;6.53;;;;;;;13.31;76.06;98322.22;5031447;28;20036;-78
2021/10/11 11:20:43;;;;;;;12.93;6.15;;;;;;;13.33;75.75;98330.19;5030856;28;20029;-78
2021/10/11 11:23:13;;;;;;;12.10;5.85;;;;;;;13.47;75.62;98330.97;5030773;28;20029;-77
2021/10/11 11:25:41;;;;;;;12.55;7.05;;;;;;;13.42;75.95;98314.59;5029527;28;20040;-77
2021/10/11 11:28:09;;;;;;;15.85;6.57;;;;;;;13.49;76.09;98333.44;5030760;28;20039;-78